Terminal Aerodrome Forecast
Issued by NWS Caribou, ME

Home | Current Version | Previous Version | Text Only | Print | Product List | Glossary On
Versions: 1 2 3 4 5 6 7 8 9 10 11 12 13 14 15 16 17 18 19 20 21 22 23
000
FTUS41 KCAR 301317 AAA
TAFBGR
TAF AMD
KBGR 301317Z 3013/3112 17005KT 6SM -SHRA BR OVC004
     FM301500 21007KT P6SM OVC008
     FM301700 20007KT P6SM SCT008 BKN015
     FM302000 20010KT P6SM SCT035 BKN070
     FM310200 21006KT 5SM BR BKN003=

USA.gov is the U.S. government's official web portal to all federal, state and local government web resources and services.